Time;durP1;ratioP1;P1;durP2;ratioP2;P2;SDS_P1;SDS_P2;PMS_P1;PMS_P2;Temp;Humidity;BMP_temperature;BMP_pressure;BME280_temperature;BME280_humidity;BME280_pressure;Samples;Min_cycle;Max_cycle;Signal;HPM_P1;HPM_P2
2021/10/12 00:01:18;;;;;;;1.92;0.77;;;;;;;;;;4510481;28;20802;-62
2021/10/12 00:03:29;;;;;;;2.08;0.90;;;;;;;;;;4530772;28;20152;-62
2021/10/12 00:05:39;;;;;;;2.13;0.77;;;;;;;;;;4528267;28;20037;-61
2021/10/12 00:07:50;;;;;;;2.33;0.87;;;;;;;;;;4529032;28;20025;-62
2021/10/12 00:10:00;;;;;;;2.43;0.70;;;;;;;;;;4529099;28;20583;-62
2021/10/12 00:12:11;;;;;;;2.17;0.77;;;;;;;;;;4526660;28;34404;-63
2021/10/12 00:14:21;;;;;;;1.37;0.67;;;;;;;;;;4530471;28;20068;-63
2021/10/12 00:16:31;;;;;;;1.83;0.70;;;;;;;;;;4527530;28;23663;-63
2021/10/12 00:18:42;;;;;;;1.10;0.60;;;;;;;;;;4528198;28;20347;-63
2021/10/12 00:20:54;;;;;;;2.47;0.70;;;;;;;;;;4513772;28;20221;-63
2021/10/12 00:23:05;;;;;;;1.10;0.60;;;;;;;;;;4512867;28;20034;-62
2021/10/12 00:25:16;;;;;;;1.63;0.68;;;;;;;;;;4528543;28;20474;-63
2021/10/12 00:27:26;;;;;;;3.07;1.07;;;;;;;;;;4528251;28;20390;-63
2021/10/12 00:29:36;;;;;;;2.50;0.80;;;;;;;;;;4528911;28;20052;-63
2021/10/12 00:31:47;;;;;;;1.30;0.63;;;;;;;;;;4521536;28;27472;-63
2021/10/12 00:33:57;;;;;;;2.30;0.60;;;;;;;;;;4528952;28;20533;-63
2021/10/12 00:36:08;;;;;;;1.50;0.53;;;;;;;;;;4514891;28;20069;-63
2021/10/12 00:38:18;;;;;;;1.67;0.70;;;;;;;;;;4529423;28;20076;-63
2021/10/12 00:40:29;;;;;;;2.87;0.90;;;;;;;;;;4527938;28;20051;-63
2021/10/12 00:42:39;;;;;;;2.70;0.70;;;;;;;;;;4529728;28;24148;-63
2021/10/12 00:44:50;;;;;;;2.60;0.60;;;;;;;;;;4529075;28;20231;-63
2021/10/12 00:47:02;;;;;;;1.80;0.90;;;;;;;;;;4512858;28;20084;-63
2021/10/12 00:49:13;;;;;;;2.00;0.80;;;;;;;;;;4529139;28;20044;-63
2021/10/12 00:51:23;;;;;;;1.87;0.77;;;;;;;;;;4529397;28;20128;-63
2021/10/12 00:53:34;;;;;;;1.45;0.80;;;;;;;;;;4498715;28;20101;-63
2021/10/12 00:55:44;;;;;;;2.57;0.83;;;;;;;;;;4528884;28;20038;-63
2021/10/12 00:57:55;;;;;;;1.87;0.70;;;;;;;;;;4528432;28;20117;-63
2021/10/12 01:00:06;;;;;;;3.23;0.90;;;;;;;;;;4530083;28;20048;-63
2021/10/12 01:02:16;;;;;;;1.45;0.73;;;;;;;;;;4529179;28;20091;-63
2021/10/12 01:04:27;;;;;;;1.77;0.87;;;;;;;;;;4528548;28;20090;-63
2021/10/12 01:06:37;;;;;;;1.77;0.93;;;;;;;;;;4528711;28;20039;-62
2021/10/12 01:08:48;;;;;;;2.70;0.87;;;;;;;;;;4528878;28;20482;-63
2021/10/12 01:10:59;;;;;;;2.13;0.90;;;;;;;;;;4530307;28;20120;-63
2021/10/12 01:13:09;;;;;;;2.33;0.90;;;;;;;;;;4527328;28;20184;-63
2021/10/12 01:15:20;;;;;;;1.23;0.80;;;;;;;;;;4509690;28;20088;-63
2021/10/12 01:17:30;;;;;;;3.13;1.10;;;;;;;;;;4511067;28;20576;-63
2021/10/12 01:19:41;;;;;;;1.70;0.70;;;;;;;;;;4511815;28;20041;-63
2021/10/12 01:21:51;;;;;;;1.07;0.67;;;;;;;;;;4528028;28;23201;-63
2021/10/12 01:24:02;;;;;;;2.13;0.77;;;;;;;;;;4528509;28;20048;-63
2021/10/12 01:26:12;;;;;;;1.20;0.70;;;;;;;;;;4529650;28;20120;-62
2021/10/12 01:28:22;;;;;;;2.10;0.63;;;;;;;;;;4515703;28;20030;-63
2021/10/12 01:30:33;;;;;;;3.23;1.03;;;;;;;;;;4521842;28;20529;-63
2021/10/12 01:32:45;;;;;;;1.23;0.80;;;;;;;;;;4525989;28;20033;-62
2021/10/12 01:35:00;;;;;;;1.27;0.75;;;;;;;;;;4528919;28;20021;-63
2021/10/12 01:37:10;;;;;;;2.00;0.90;;;;;;;;;;4528956;28;20040;-63
2021/10/12 01:39:21;;;;;;;2.10;0.80;;;;;;;;;;4528947;28;20091;-62
2021/10/12 01:41:31;;;;;;;2.13;0.80;;;;;;;;;;4527872;28;20470;-63
2021/10/12 01:43:42;;;;;;;1.40;0.70;;;;;;;;;;4529357;28;26410;-63
2021/10/12 01:46:00;;;;;;;2.20;0.90;;;;;;;;;;4527387;28;20037;-62
2021/10/12 01:48:11;;;;;;;1.60;0.70;;;;;;;;;;4513631;28;20056;-62
2021/10/12 01:50:21;;;;;;;2.73;0.90;;;;;;;;;;4527259;28;20040;-62
2021/10/12 01:52:32;;;;;;;2.80;0.90;;;;;;;;;;4528799;28;20060;-62
2021/10/12 01:54:42;;;;;;;2.73;0.83;;;;;;;;;;4527499;28;20071;-62
2021/10/12 01:56:53;;;;;;;0.87;0.70;;;;;;;;;;4510302;28;20053;-62
2021/10/12 01:59:03;;;;;;;1.67;0.80;;;;;;;;;;4528221;28;20038;-62
2021/10/12 02:01:17;;;;;;;;;;;;;;;;;;4510468;28;20431;-62
2021/10/12 02:03:28;;;;;;;1.83;0.80;;;;;;;;;;4527672;28;20472;-62
2021/10/12 02:05:38;;;;;;;2.23;0.70;;;;;;;;;;4511400;28;20038;-62
2021/10/12 02:07:49;;;;;;;1.93;1.03;;;;;;;;;;4527889;28;31323;-62
2021/10/12 02:09:59;;;;;;;2.70;0.80;;;;;;;;;;4526385;28;38026;-62
2021/10/12 02:12:09;;;;;;;1.27;0.90;;;;;;;;;;4529356;28;20609;-62
2021/10/12 02:14:20;;;;;;;1.47;0.70;;;;;;;;;;4527912;28;22934;-62
2021/10/12 02:16:30;;;;;;;1.53;0.60;;;;;;;;;;4528454;28;20060;-62
2021/10/12 02:18:41;;;;;;;2.40;0.80;;;;;;;;;;4528546;28;20551;-62
2021/10/12 02:20:51;;;;;;;1.23;0.60;;;;;;;;;;4528182;28;26390;-62
2021/10/12 02:23:02;;;;;;;2.53;0.90;;;;;;;;;;4527445;28;20033;-62
2021/10/12 02:25:12;;;;;;;1.87;0.80;;;;;;;;;;4527986;28;20029;-63
2021/10/12 02:27:23;;;;;;;2.40;0.80;;;;;;;;;;4528505;28;20026;-62
2021/10/12 02:29:33;;;;;;;2.03;1.00;;;;;;;;;;4527771;28;20049;-62
2021/10/12 02:31:43;;;;;;;1.50;0.87;;;;;;;;;;4527632;28;20382;-62
2021/10/12 02:33:54;;;;;;;1.67;0.70;;;;;;;;;;4528044;28;20799;-62
2021/10/12 02:36:04;;;;;;;1.60;0.70;;;;;;;;;;4510169;28;20030;-62
2021/10/12 02:38:15;;;;;;;2.07;0.80;;;;;;;;;;4526924;28;28529;-62
2021/10/12 02:40:25;;;;;;;1.67;0.80;;;;;;;;;;4528423;28;20045;-62
2021/10/12 02:42:36;;;;;;;3.27;0.90;;;;;;;;;;4527173;28;20037;-62
2021/10/12 02:44:46;;;;;;;2.37;0.90;;;;;;;;;;4526589;28;20037;-62
2021/10/12 02:46:57;;;;;;;0.80;0.70;;;;;;;;;;4526968;28;20025;-62
2021/10/12 02:49:07;;;;;;;1.37;0.90;;;;;;;;;;4514596;28;20524;-63
2021/10/12 02:51:18;;;;;;;1.90;0.80;;;;;;;;;;4510264;28;20045;-62
2021/10/12 02:53:28;;;;;;;1.47;0.70;;;;;;;;;;4509665;28;20394;-62
2021/10/12 02:55:39;;;;;;;1.73;1.00;;;;;;;;;;4522214;28;20398;-62
2021/10/12 02:57:49;;;;;;;2.43;1.00;;;;;;;;;;4512371;28;20076;-63
2021/10/12 03:00:00;;;;;;;1.40;0.80;;;;;;;;;;4531556;28;20087;-63
2021/10/12 03:02:11;;;;;;;2.03;0.70;;;;;;;;;;4513489;28;20041;-62
2021/10/12 03:04:21;;;;;;;1.93;0.90;;;;;;;;;;4532996;28;20044;-62
2021/10/12 03:06:32;;;;;;;1.77;0.90;;;;;;;;;;4527995;28;20377;-62
2021/10/12 03:08:43;;;;;;;1.90;0.83;;;;;;;;;;4531255;28;20111;-62
2021/10/12 03:10:53;;;;;;;2.57;1.00;;;;;;;;;;4530136;28;20102;-62
2021/10/12 03:13:04;;;;;;;1.90;0.90;;;;;;;;;;4531527;28;20038;-62
2021/10/12 03:15:14;;;;;;;1.77;0.90;;;;;;;;;;4513267;28;20094;-62
2021/10/12 03:17:25;;;;;;;1.90;0.97;;;;;;;;;;4530389;28;20405;-62
2021/10/12 03:19:35;;;;;;;2.87;1.10;;;;;;;;;;4529360;28;32977;-62
2021/10/12 03:21:52;;;;;;;1.93;1.00;;;;;;;;;;4528990;28;20041;-62
2021/10/12 03:24:03;;;;;;;1.67;0.90;;;;;;;;;;4529268;28;20033;-62
2021/10/12 03:26:14;;;;;;;2.17;0.83;;;;;;;;;;4530573;28;20828;-62
2021/10/12 03:28:24;;;;;;;2.40;1.20;;;;;;;;;;4530351;28;20040;-62
2021/10/12 03:30:34;;;;;;;1.77;1.10;;;;;;;;;;4530575;28;20823;-63
2021/10/12 03:32:45;;;;;;;3.13;1.27;;;;;;;;;;4530149;28;20088;-63
2021/10/12 03:34:55;;;;;;;3.27;1.27;;;;;;;;;;4529587;28;20041;-62
2021/10/12 03:37:06;;;;;;;2.20;1.20;;;;;;;;;;4531058;28;20056;-62
2021/10/12 03:39:16;;;;;;;2.53;1.30;;;;;;;;;;4512352;28;34509;-62
2021/10/12 03:41:27;;;;;;;2.30;1.03;;;;;;;;;;4511745;28;34071;-62
2021/10/12 03:43:37;;;;;;;1.80;1.10;;;;;;;;;;4529168;28;20052;-62
2021/10/12 03:45:47;;;;;;;2.47;1.50;;;;;;;;;;4530390;28;20461;-62
2021/10/12 03:47:58;;;;;;;3.17;1.60;;;;;;;;;;4529325;28;20400;-62
2021/10/12 03:50:09;;;;;;;2.50;1.70;;;;;;;;;;4527813;28;20044;-62
2021/10/12 03:52:19;;;;;;;2.63;1.80;;;;;;;;;;4531153;28;20037;-62
2021/10/12 03:54:30;;;;;;;3.27;1.80;;;;;;;;;;4530019;28;20025;-62
2021/10/12 03:56:41;;;;;;;2.77;1.60;;;;;;;;;;4529836;28;20409;-62
2021/10/12 03:58:53;;;;;;;1.92;1.70;;;;;;;;;;4529170;28;20045;-61
2021/10/12 04:01:04;;;;;;;2.42;1.63;;;;;;;;;;4529929;28;20251;-62
2021/10/12 04:03:14;;;;;;;2.83;1.70;;;;;;;;;;4529233;28;20060;-63
2021/10/12 04:05:24;;;;;;;4.30;1.70;;;;;;;;;;4528586;28;20026;-62
2021/10/12 04:07:35;;;;;;;3.43;2.10;;;;;;;;;;4512177;28;20577;-62
2021/10/12 04:09:45;;;;;;;2.53;1.87;;;;;;;;;;4528753;28;20049;-62
2021/10/12 04:11:56;;;;;;;2.43;1.67;;;;;;;;;;4528548;28;20104;-62
2021/10/12 04:14:06;;;;;;;2.70;1.80;;;;;;;;;;4528986;28;20682;-62
2021/10/12 04:16:17;;;;;;;2.77;1.87;;;;;;;;;;4528306;28;20454;-63
2021/10/12 04:18:27;;;;;;;2.23;1.63;;;;;;;;;;4531167;28;20037;-63
2021/10/12 04:20:38;;;;;;;4.30;2.10;;;;;;;;;;4528756;28;21046;-62
2021/10/12 04:22:48;;;;;;;3.97;2.00;;;;;;;;;;4529123;28;20037;-62
2021/10/12 04:24:58;;;;;;;3.17;1.73;;;;;;;;;;4529395;28;22791;-61
2021/10/12 04:27:09;;;;;;;2.13;1.83;;;;;;;;;;4528874;28;20418;-60
2021/10/12 04:29:19;;;;;;;2.93;2.00;;;;;;;;;;4528812;28;20041;-60
2021/10/12 04:31:30;;;;;;;3.10;2.00;;;;;;;;;;4528476;28;20048;-60
2021/10/12 04:33:40;;;;;;;2.53;1.93;;;;;;;;;;4511132;28;20038;-61
2021/10/12 04:35:51;;;;;;;2.87;2.00;;;;;;;;;;4529086;28;20245;-61
2021/10/12 04:38:02;;;;;;;2.53;1.80;;;;;;;;;;4516209;28;20044;-60
2021/10/12 04:40:12;;;;;;;2.38;1.70;;;;;;;;;;4521796;28;20129;-60
2021/10/12 04:42:23;;;;;;;2.80;1.70;;;;;;;;;;4527751;28;26148;-60
2021/10/12 04:44:33;;;;;;;1.97;1.50;;;;;;;;;;4528074;28;24424;-60
2021/10/12 04:46:43;;;;;;;4.83;2.00;;;;;;;;;;4529373;28;20060;-60
2021/10/12 04:48:54;;;;;;;3.90;2.20;;;;;;;;;;4528929;28;20587;-60
2021/10/12 04:51:05;;;;;;;2.67;1.57;;;;;;;;;;4528545;28;20074;-60
2021/10/12 04:53:15;;;;;;;2.97;1.63;;;;;;;;;;4527199;28;20595;-60
2021/10/12 04:55:25;;;;;;;1.90;1.67;;;;;;;;;;4526648;28;20037;-60
2021/10/12 04:57:36;;;;;;;3.10;2.00;;;;;;;;;;4527197;28;20036;-61
2021/10/12 04:59:51;;;;;;;2.55;1.60;;;;;;;;;;4513147;28;20030;-62
2021/10/12 05:02:01;;;;;;;3.33;1.70;;;;;;;;;;4527444;28;20547;-62
2021/10/12 05:04:12;;;;;;;3.13;1.97;;;;;;;;;;4529771;28;20059;-62
2021/10/12 05:06:22;;;;;;;2.80;1.80;;;;;;;;;;4528295;28;20030;-62
2021/10/12 05:08:33;;;;;;;3.23;1.80;;;;;;;;;;4528494;28;20064;-63
2021/10/12 05:10:43;;;;;;;3.33;1.90;;;;;;;;;;4528636;28;20044;-62
2021/10/12 05:12:53;;;;;;;2.33;1.90;;;;;;;;;;4527760;28;20489;-62
2021/10/12 05:15:04;;;;;;;2.90;1.90;;;;;;;;;;4518802;28;20037;-63
2021/10/12 05:17:22;;;;;;;3.78;1.63;;;;;;;;;;4526746;28;20040;-62
2021/10/12 05:19:32;;;;;;;2.70;1.73;;;;;;;;;;4529686;28;20037;-62
2021/10/12 05:21:43;;;;;;;2.40;1.50;;;;;;;;;;4528990;28;20096;-62
2021/10/12 05:23:54;;;;;;;2.23;1.50;;;;;;;;;;4527144;28;20044;-62
2021/10/12 05:26:05;;;;;;;2.70;1.37;;;;;;;;;;4530020;28;20538;-63
2021/10/12 05:28:16;;;;;;;2.53;1.40;;;;;;;;;;4511113;28;20033;-61
2021/10/12 05:30:27;;;;;;;2.85;1.60;;;;;;;;;;4526995;28;20040;-61
2021/10/12 05:32:40;;;;;;;2.88;1.58;;;;;;;;;;4510643;28;20095;-61
2021/10/12 05:34:50;;;;;;;2.78;1.40;;;;;;;;;;4515816;28;20068;-61
2021/10/12 05:37:02;;;;;;;2.78;1.40;;;;;;;;;;4511418;28;20029;-63
2021/10/12 05:39:12;;;;;;;3.13;1.70;;;;;;;;;;4511233;28;20038;-61
2021/10/12 05:41:23;;;;;;;2.63;1.40;;;;;;;;;;4527094;28;20497;-61
2021/10/12 05:43:33;;;;;;;2.60;1.43;;;;;;;;;;4529427;28;20031;-61
2021/10/12 05:45:44;;;;;;;3.20;1.60;;;;;;;;;;4512135;28;20113;-61
2021/10/12 05:47:54;;;;;;;3.47;1.60;;;;;;;;;;4512236;28;20050;-61
2021/10/12 05:50:06;;;;;;;2.63;1.50;;;;;;;;;;4526250;28;20045;-62
2021/10/12 05:52:19;;;;;;;2.60;1.52;;;;;;;;;;4528104;28;20036;-63
2021/10/12 05:54:32;;;;;;;2.38;1.60;;;;;;;;;;4526664;28;20038;-62
2021/10/12 05:56:48;;;;;;;4.43;1.98;;;;;;;;;;4528683;28;20029;-62
2021/10/12 05:58:59;;;;;;;4.15;2.00;;;;;;;;;;4529304;28;20037;-62
2021/10/12 06:01:10;;;;;;;3.70;1.90;;;;;;;;;;4526210;28;23582;-62
2021/10/12 06:03:21;;;;;;;;;;;;;;;;;;4494623;28;20043;-62
2021/10/12 06:05:33;;;;;;;4.05;1.90;;;;;;;;;;4514101;28;19914;-62
2021/10/12 06:07:43;;;;;;;2.55;1.75;;;;;;;;;;4526519;28;20036;-62
2021/10/12 06:09:54;;;;;;;3.70;2.00;;;;;;;;;;4529098;28;20036;-62
2021/10/12 06:12:04;;;;;;;3.10;1.90;;;;;;;;;;4527456;28;20032;-62
2021/10/12 06:14:15;;;;;;;2.83;1.83;;;;;;;;;;4526289;28;20651;-63
2021/10/12 06:16:25;;;;;;;3.97;2.30;;;;;;;;;;4511158;28;20473;-62
2021/10/12 06:18:36;;;;;;;3.37;2.10;;;;;;;;;;4527590;28;20030;-62
2021/10/12 06:20:48;;;;;;;3.40;2.13;;;;;;;;;;4527029;28;20486;-62
2021/10/12 06:22:58;;;;;;;4.18;2.30;;;;;;;;;;4525110;28;20072;-61
2021/10/12 06:25:09;;;;;;;4.10;2.40;;;;;;;;;;4526273;28;20033;-61
2021/10/12 06:27:20;;;;;;;4.17;2.50;;;;;;;;;;4527395;28;20441;-61
2021/10/12 06:29:31;;;;;;;;;;;;;;;;;;4510912;28;20143;-61
2021/10/12 06:31:41;;;;;;;4.15;2.33;;;;;;;;;;4522717;28;19980;-62
2021/10/12 06:33:51;;;;;;;3.70;2.07;;;;;;;;;;4529377;28;20595;-62
2021/10/12 06:36:02;;;;;;;3.70;2.40;;;;;;;;;;4529311;28;20037;-61
2021/10/12 06:38:13;;;;;;;4.03;2.08;;;;;;;;;;4529385;28;20045;-62
2021/10/12 06:40:24;;;;;;;4.77;2.47;;;;;;;;;;4531161;28;20876;-62
2021/10/12 06:42:34;;;;;;;4.72;2.50;;;;;;;;;;4522120;28;20112;-62
2021/10/12 06:44:45;;;;;;;4.67;2.67;;;;;;;;;;4513421;28;20061;-62
2021/10/12 06:46:55;;;;;;;3.70;2.17;;;;;;;;;;4512286;28;20477;-61
2021/10/12 06:49:05;;;;;;;3.80;2.20;;;;;;;;;;4521773;28;20037;-62
2021/10/12 06:51:16;;;;;;;5.40;2.53;;;;;;;;;;4514485;28;20590;-62
2021/10/12 06:53:26;;;;;;;3.77;2.50;;;;;;;;;;4528909;28;20556;-62
2021/10/12 06:55:37;;;;;;;3.53;2.58;;;;;;;;;;4530427;28;20040;-61
2021/10/12 06:57:48;;;;;;;5.40;2.60;;;;;;;;;;4530659;28;20077;-61
2021/10/12 06:59:59;;;;;;;3.70;2.50;;;;;;;;;;4512536;28;20814;-61
2021/10/12 07:02:09;;;;;;;3.73;2.80;;;;;;;;;;4530702;28;20041;-61
2021/10/12 07:04:20;;;;;;;5.60;2.63;;;;;;;;;;4527765;28;20087;-61
2021/10/12 07:06:31;;;;;;;4.03;2.78;;;;;;;;;;4530333;28;20026;-61
2021/10/12 07:08:41;;;;;;;4.53;3.00;;;;;;;;;;4512605;28;20571;-61
2021/10/12 07:10:51;;;;;;;4.67;2.57;;;;;;;;;;4528271;28;20031;-61
2021/10/12 07:13:02;;;;;;;4.37;2.57;;;;;;;;;;4528429;28;20448;-61
2021/10/12 07:15:12;;;;;;;4.63;2.80;;;;;;;;;;4516334;28;20038;-61
2021/10/12 07:17:23;;;;;;;5.07;3.00;;;;;;;;;;4528583;28;20120;-61
2021/10/12 07:19:33;;;;;;;5.27;3.13;;;;;;;;;;4528692;28;20045;-61
2021/10/12 07:21:45;;;;;;;5.77;3.37;;;;;;;;;;4531137;28;20044;-61
2021/10/12 07:23:56;;;;;;;4.72;3.03;;;;;;;;;;4510536;28;20030;-60
2021/10/12 07:26:06;;;;;;;4.93;3.00;;;;;;;;;;4512320;28;20663;-60
2021/10/12 07:28:17;;;;;;;5.10;2.90;;;;;;;;;;4530988;28;20044;-61
2021/10/12 07:30:27;;;;;;;5.97;3.23;;;;;;;;;;4529693;28;20034;-61
2021/10/12 07:32:38;;;;;;;5.17;3.17;;;;;;;;;;4527244;28;20111;-61
2021/10/12 07:34:48;;;;;;;5.13;3.00;;;;;;;;;;4529851;28;20112;-61
2021/10/12 07:36:59;;;;;;;5.93;3.03;;;;;;;;;;4528450;28;20034;-61
2021/10/12 07:39:09;;;;;;;4.87;3.33;;;;;;;;;;4527966;28;20033;-61
2021/10/12 07:41:20;;;;;;;5.53;3.30;;;;;;;;;;4529057;28;20116;-61
2021/10/12 07:43:30;;;;;;;5.40;2.97;;;;;;;;;;4529675;28;20473;-61
2021/10/12 07:45:41;;;;;;;4.30;2.80;;;;;;;;;;4529125;28;20499;-60
2021/10/12 07:47:51;;;;;;;5.87;3.33;;;;;;;;;;4509990;28;20104;-60
2021/10/12 07:50:02;;;;;;;5.57;3.07;;;;;;;;;;4529115;28;20049;-60
2021/10/12 07:52:13;;;;;;;4.47;2.60;;;;;;;;;;4530355;28;20583;-61
2021/10/12 07:54:27;;;;;;;4.68;2.80;;;;;;;;;;4530255;28;20089;-58
2021/10/12 07:56:38;;;;;;;4.45;2.92;;;;;;;;;;4528710;28;20060;-58
2021/10/12 07:58:50;;;;;;;6.37;3.23;;;;;;;;;;4528248;28;20095;-58
2021/10/12 08:01:02;;;;;;;5.32;3.05;;;;;;;;;;4510162;28;20097;-57
2021/10/12 08:03:14;;;;;;;4.57;3.05;;;;;;;;;;4526711;28;20040;-57
2021/10/12 08:05:26;;;;;;;4.65;3.03;;;;;;;;;;4527988;28;20041;-58
2021/10/12 08:07:36;;;;;;;;;;;;;;;;;;4514019;28;20030;-58
2021/10/12 08:09:46;;;;;;;4.18;2.75;;;;;;;;;;4527664;28;20676;-58
2021/10/12 08:11:57;;;;;;;4.73;2.90;;;;;;;;;;4528095;28;20112;-58
2021/10/12 08:14:10;;;;;;;4.60;2.90;;;;;;;;;;4527845;28;20042;-58
2021/10/12 08:16:26;;;;;;;4.70;3.10;;;;;;;;;;4509470;28;20045;-58
2021/10/12 08:18:37;;;;;;;4.07;2.85;;;;;;;;;;4528916;28;20764;-58
2021/10/12 08:20:48;;;;;;;4.50;2.80;;;;;;;;;;4510919;28;20034;-58
2021/10/12 08:22:59;;;;;;;;;;;;;;;;;;4528072;28;20034;-58
2021/10/12 08:25:10;;;;;;;4.90;3.17;;;;;;;;;;4529150;28;19928;-58
2021/10/12 08:27:21;;;;;;;3.17;2.47;;;;;;;;;;4528637;28;20652;-58
2021/10/12 08:29:31;;;;;;;2.87;2.27;;;;;;;;;;4528840;28;20064;-58
2021/10/12 08:31:42;;;;;;;3.83;2.40;;;;;;;;;;4527485;28;20128;-58
2021/10/12 08:33:53;;;;;;;3.35;2.35;;;;;;;;;;4527534;28;20025;-58
2021/10/12 08:36:04;;;;;;;3.97;2.30;;;;;;;;;;4527168;28;20033;-58
2021/10/12 08:38:19;;;;;;;4.63;2.70;;;;;;;;;;4521427;28;20502;-58
2021/10/12 08:40:31;;;;;;;2.55;2.20;;;;;;;;;;4529714;28;20827;-58
2021/10/12 08:42:46;;;;;;;3.28;2.13;;;;;;;;;;4529241;28;20034;-58
2021/10/12 08:44:59;;;;;;;3.40;2.35;;;;;;;;;;4528609;28;20033;-58
2021/10/12 08:47:11;;;;;;;2.28;1.92;;;;;;;;;;4510048;28;20033;-58
2021/10/12 08:49:21;;;;;;;2.40;1.87;;;;;;;;;;4528256;28;20048;-58
2021/10/12 08:51:32;;;;;;;3.20;1.97;;;;;;;;;;4528614;28;27142;-58
2021/10/12 08:53:42;;;;;;;2.60;2.00;;;;;;;;;;4526996;28;20036;-58
2021/10/12 08:55:53;;;;;;;2.13;1.35;;;;;;;;;;4527254;28;20219;-58
2021/10/12 08:58:04;;;;;;;2.97;1.67;;;;;;;;;;4528439;28;20028;-58
2021/10/12 09:00:19;;;;;;;2.72;1.70;;;;;;;;;;4528128;28;20041;-58
2021/10/12 09:02:30;;;;;;;2.22;1.50;;;;;;;;;;4528250;28;20594;-58
2021/10/12 09:04:41;;;;;;;2.00;1.60;;;;;;;;;;4529197;28;20059;-58
2021/10/12 09:06:54;;;;;;;2.40;1.23;;;;;;;;;;4509639;28;21038;-58
2021/10/12 09:09:07;;;;;;;2.60;1.50;;;;;;;;;;4527764;28;21258;-58
2021/10/12 09:11:23;;;;;;;2.35;1.58;;;;;;;;;;4526906;28;20037;-58
2021/10/12 09:13:45;;;;;;;1.85;1.30;;;;;;;;;;4528151;28;20045;-58
2021/10/12 09:16:06;;;;;;;1.83;1.20;;;;;;;;;;4527626;28;20094;-58
2021/10/12 09:18:16;;;;;;;1.57;1.23;;;;;;;;;;4526191;28;20037;-58
2021/10/12 09:20:28;;;;;;;2.30;1.30;;;;;;;;;;4509085;28;20037;-58
2021/10/12 09:22:39;;;;;;;2.67;1.75;;;;;;;;;;4527452;28;20588;-58
2021/10/12 09:24:50;;;;;;;1.90;1.10;;;;;;;;;;4509046;28;20559;-58
2021/10/12 09:27:04;;;;;;;2.65;1.15;;;;;;;;;;4528251;28;20042;-58
2021/10/12 09:29:24;;;;;;;2.55;1.40;;;;;;;;;;4528606;28;20635;-59
2021/10/12 09:31:41;;;;;;;2.50;1.55;;;;;;;;;;4511073;28;20041;-58
2021/10/12 09:33:51;;;;;;;2.67;1.70;;;;;;;;;;4509925;28;20034;-60
2021/10/12 09:36:03;;;;;;;2.40;1.40;;;;;;;;;;4527618;28;20099;-58
2021/10/12 09:38:14;;;;;;;2.17;1.60;;;;;;;;;;4528339;28;20110;-58
2021/10/12 09:40:24;;;;;;;3.95;1.58;;;;;;;;;;4511239;28;20029;-58
2021/10/12 09:42:40;;;;;;;1.93;1.50;;;;;;;;;;4527574;28;20029;-59
2021/10/12 09:44:53;;;;;;;2.63;1.63;;;;;;;;;;4530990;28;20037;-59
2021/10/12 09:47:13;;;;;;;2.03;1.40;;;;;;;;;;4526141;28;20580;-59
2021/10/12 09:49:25;;;;;;;2.10;1.30;;;;;;;;;;4503560;28;20133;-58
2021/10/12 09:51:35;;;;;;;2.08;1.27;;;;;;;;;;4529169;28;20037;-58
2021/10/12 09:53:46;;;;;;;1.67;1.13;;;;;;;;;;4526732;28;20029;-58
2021/10/12 09:55:57;;;;;;;1.67;1.20;;;;;;;;;;4527885;28;20277;-58
2021/10/12 09:58:08;;;;;;;2.70;1.00;;;;;;;;;;4509706;28;20970;-58
2021/10/12 10:00:19;;;;;;;1.67;1.10;;;;;;;;;;4510780;28;20038;-58
2021/10/12 10:02:34;;;;;;;2.27;1.20;;;;;;;;;;4527563;28;27279;-58
2021/10/12 10:04:45;;;;;;;1.23;1.10;;;;;;;;;;4528612;28;20067;-58
2021/10/12 10:07:06;;;;;;;2.13;1.00;;;;;;;;;;4530283;28;20043;-58
2021/10/12 10:09:19;;;;;;;;;;;;;;;;;;4532897;28;20049;-58
2021/10/12 10:11:32;;;;;;;1.33;1.00;;;;;;;;;;4529122;28;20392;-58
2021/10/12 10:13:43;;;;;;;1.48;0.90;;;;;;;;;;4530498;28;20046;-58
2021/10/12 10:15:54;;;;;;;1.48;0.77;;;;;;;;;;4514847;28;29758;-58
2021/10/12 10:18:05;;;;;;;0.98;0.70;;;;;;;;;;4518613;28;20112;-57
2021/10/12 10:20:15;;;;;;;1.73;0.93;;;;;;;;;;4511776;28;20403;-58
2021/10/12 10:22:40;;;;;;;1.07;0.73;;;;;;;;;;4517854;28;21094;-58
2021/10/12 10:24:55;;;;;;;2.38;1.08;;;;;;;;;;4529938;28;21248;-58
2021/10/12 10:27:06;;;;;;;1.52;0.90;;;;;;;;;;4530305;28;20048;-58
2021/10/12 10:29:23;;;;;;;0.70;0.70;;;;;;;;;;4514987;28;20056;-58
2021/10/12 10:31:38;;;;;;;1.00;0.80;;;;;;;;;;4530448;28;20055;-58
2021/10/12 10:33:49;;;;;;;1.45;0.68;;;;;;;;;;4530522;28;20040;-58
2021/10/12 10:36:04;;;;;;;1.03;0.60;;;;;;;;;;4530262;28;20489;-58
2021/10/12 10:38:21;;;;;;;1.95;0.80;;;;;;;;;;4529798;28;20052;-58
2021/10/12 10:40:36;;;;;;;1.00;0.70;;;;;;;;;;4530000;28;20032;-58
2021/10/12 10:42:51;;;;;;;1.02;0.70;;;;;;;;;;4528536;28;20040;-58
2021/10/12 10:45:06;;;;;;;0.52;0.52;;;;;;;;;;4530086;28;20548;-58
2021/10/12 10:47:44;;;;;;;1.10;0.80;;;;;;;;;;4528226;28;20584;-58
2021/10/12 10:50:14;;;;;;;0.98;0.70;;;;;;;;;;4530711;28;20052;-57
2021/10/12 10:52:43;;;;;;;1.85;0.80;;;;;;;;;;4513825;28;20741;-58
2021/10/12 10:54:57;;;;;;;0.85;0.70;;;;;;;;;;4530999;28;20041;-58
2021/10/12 10:57:21;;;;;;;1.05;0.80;;;;;;;;;;4529519;28;20029;-59
2021/10/12 10:59:32;;;;;;;1.08;0.70;;;;;;;;;;4529648;28;20029;-58
2021/10/12 11:01:42;;;;;;;0.70;0.60;;;;;;;;;;4528978;28;20026;-57
2021/10/12 11:03:57;;;;;;;1.25;0.80;;;;;;;;;;4529857;28;20547;-58
2021/10/12 11:06:15;;;;;;;1.20;0.80;;;;;;;;;;4515262;28;20030;-59
2021/10/12 11:08:27;;;;;;;0.70;0.68;;;;;;;;;;4529996;28;20748;-58
2021/10/12 11:10:38;;;;;;;1.00;0.68;;;;;;;;;;4530282;28;20045;-58
2021/10/12 11:12:48;;;;;;;2.15;0.60;;;;;;;;;;4529183;28;20041;-58
2021/10/12 11:15:06;;;;;;;1.00;0.60;;;;;;;;;;4529454;28;20041;-58
2021/10/12 11:17:17;;;;;;;0.52;0.47;;;;;;;;;;4531060;28;20030;-59
2021/10/12 11:19:27;;;;;;;1.03;0.47;;;;;;;;;;4529329;28;20037;-58
2021/10/12 11:21:38;;;;;;;0.63;0.50;;;;;;;;;;4528549;28;20033;-58
2021/10/12 11:23:50;;;;;;;0.77;0.50;;;;;;;;;;4530400;28;20037;-58
2021/10/12 11:26:01;;;;;;;0.45;0.45;;;;;;;;;;4531251;28;20033;-59
2021/10/12 11:28:12;;;;;;;1.25;0.45;;;;;;;;;;4512417;28;20980;-58
2021/10/12 11:30:32;;;;;;;0.30;0.30;;;;;;;;;;4530039;28;20116;-58
2021/10/12 11:32:53;;;;;;;0.52;0.40;;;;;;;;;;4528979;28;20202;-58
2021/10/12 11:35:05;;;;;;;0.65;0.30;;;;;;;;;;4522528;28;20132;-58
2021/10/12 11:37:16;;;;;;;0.30;0.30;;;;;;;;;;4515671;28;20643;-59
2021/10/12 11:39:27;;;;;;;0.45;0.40;;;;;;;;;;4529440;28;20037;-58
2021/10/12 11:41:39;;;;;;;1.20;0.40;;;;;;;;;;4530148;28;20041;-58
2021/10/12 11:43:52;;;;;;;0.30;0.30;;;;;;;;;;4512661;28;20033;-58
2021/10/12 11:46:03;;;;;;;0.30;0.20;;;;;;;;;;4529196;28;20040;-58
2021/10/12 11:48:19;;;;;;;0.43;0.30;;;;;;;;;;4513119;28;20028;-58
2021/10/12 11:50:35;;;;;;;0.17;0.17;;;;;;;;;;4529543;28;32051;-59
2021/10/12 11:52:51;;;;;;;0.30;0.30;;;;;;;;;;4529089;28;21223;-58
2021/10/12 11:55:06;;;;;;;0.20;0.20;;;;;;;;;;4517340;28;20033;-58
2021/10/12 11:57:21;;;;;;;0.65;0.20;;;;;;;;;;4528225;28;20107;-59
2021/10/12 11:59:35;;;;;;;0.38;0.25;;;;;;;;;;4528964;28;21080;-58
2021/10/12 12:01:46;;;;;;;0.20;0.20;;;;;;;;;;4529356;28;20994;-58
2021/10/12 12:04:02;;;;;;;0.27;0.27;;;;;;;;;;4515802;28;20041;-58
2021/10/12 12:06:12;;;;;;;0.20;0.20;;;;;;;;;;4514182;28;20041;-58
2021/10/12 12:08:24;;;;;;;0.30;0.23;;;;;;;;;;4511628;28;20029;-58
2021/10/12 12:10:35;;;;;;;0.38;0.22;;;;;;;;;;4499282;28;20060;-59
2021/10/12 12:12:45;;;;;;;0.20;0.17;;;;;;;;;;4509748;28;20037;-58
2021/10/12 12:14:56;;;;;;;0.47;0.20;;;;;;;;;;4493204;28;20479;-59
2021/10/12 12:17:07;;;;;;;0.40;0.30;;;;;;;;;;4510999;28;20491;-59
2021/10/12 12:19:20;;;;;;;0.20;0.20;;;;;;;;;;4528172;28;20041;-58
2021/10/12 12:21:33;;;;;;;0.30;0.28;;;;;;;;;;4521046;28;20044;-59
2021/10/12 12:23:49;;;;;;;0.43;0.30;;;;;;;;;;4528253;28;20151;-59
2021/10/12 12:26:00;;;;;;;0.30;0.30;;;;;;;;;;4530168;28;20047;-58
2021/10/12 12:28:10;;;;;;;0.83;0.30;;;;;;;;;;4514650;28;20039;-59
2021/10/12 12:30:41;;;;;;;0.60;0.33;;;;;;;;;;4528182;28;31435;-58
2021/10/12 12:32:56;;;;;;;0.80;0.43;;;;;;;;;;4511481;28;20544;-58
2021/10/12 12:35:08;;;;;;;0.40;0.30;;;;;;;;;;4521439;28;20152;-59
2021/10/12 12:37:24;;;;;;;0.85;0.30;;;;;;;;;;4512643;28;20037;-58
2021/10/12 12:39:41;;;;;;;0.77;0.30;;;;;;;;;;4521399;28;20057;-58
2021/10/12 12:41:52;;;;;;;0.73;0.38;;;;;;;;;;4527233;28;20033;-59
2021/10/12 12:44:04;;;;;;;0.50;0.37;;;;;;;;;;4529510;28;20034;-58
2021/10/12 12:46:16;;;;;;;0.68;0.40;;;;;;;;;;4528764;28;20033;-58
2021/10/12 12:48:26;;;;;;;0.60;0.40;;;;;;;;;;4509972;28;20030;-59
2021/10/12 12:50:38;;;;;;;0.90;0.40;;;;;;;;;;4527662;28;20029;-58
2021/10/12 12:52:49;;;;;;;0.50;0.40;;;;;;;;;;4520715;28;20044;-59
2021/10/12 12:54:59;;;;;;;0.80;0.40;;;;;;;;;;4509655;28;20042;-58
2021/10/12 12:57:16;;;;;;;1.63;0.43;;;;;;;;;;4528344;28;20042;-59
2021/10/12 12:59:26;;;;;;;0.40;0.30;;;;;;;;;;4528045;28;20072;-59
2021/10/12 13:01:40;;;;;;;0.98;0.40;;;;;;;;;;4527583;28;20108;-59
2021/10/12 13:03:53;;;;;;;0.55;0.25;;;;;;;;;;4527419;28;20253;-59
2021/10/12 13:06:04;;;;;;;0.98;0.40;;;;;;;;;;4513564;28;20132;-58
2021/10/12 13:08:14;;;;;;;1.90;0.60;;;;;;;;;;4528596;28;20137;-59
2021/10/12 13:10:25;;;;;;;0.30;0.30;;;;;;;;;;4527035;28;20048;-59
2021/10/12 13:12:35;;;;;;;0.57;0.33;;;;;;;;;;4508495;28;20052;-58